sensor_id;sensor_type;location;lat;lon;timestamp;P1;durP1;ratioP1;P2;durP2;ratioP2
5493;SDS011;2769;49.864;8.656;2023-04-04T00:01:20;3.50;;;2.00;;
5493;SDS011;2769;49.864;8.656;2023-04-04T00:03:48;4.30;;;2.40;;
5493;SDS011;2769;49.864;8.656;2023-04-04T00:06:17;2.67;;;2.17;;
5493;SDS011;2769;49.864;8.656;2023-04-04T00:08:46;2.00;;;1.90;;
5493;SDS011;2769;49.864;8.656;2023-04-04T00:11:14;2.30;;;2.10;;
5493;SDS011;2769;49.864;8.656;2023-04-04T00:13:42;2.03;;;1.90;;
5493;SDS011;2769;49.864;8.656;2023-04-04T00:16:10;4.27;;;2.60;;
5493;SDS011;2769;49.864;8.656;2023-04-04T00:18:39;2.40;;;2.20;;
5493;SDS011;2769;49.864;8.656;2023-04-04T00:21:07;4.20;;;2.90;;
5493;SDS011;2769;49.864;8.656;2023-04-04T00:23:34;7.37;;;3.43;;
5493;SDS011;2769;49.864;8.656;2023-04-04T00:26:04;4.60;;;2.80;;
5493;SDS011;2769;49.864;8.656;2023-04-04T00:28:32;2.73;;;2.47;;
5493;SDS011;2769;49.864;8.656;2023-04-04T00:30:59;2.30;;;2.10;;
5493;SDS011;2769;49.864;8.656;2023-04-04T00:33:28;2.50;;;2.17;;
5493;SDS011;2769;49.864;8.656;2023-04-04T00:35:56;3.50;;;3.03;;
5493;SDS011;2769;49.864;8.656;2023-04-04T00:38:24;2.30;;;2.13;;
5493;SDS011;2769;49.864;8.656;2023-04-04T00:40:51;2.60;;;2.40;;
5493;SDS011;2769;49.864;8.656;2023-04-04T00:43:21;2.83;;;2.57;;
5493;SDS011;2769;49.864;8.656;2023-04-04T00:45:49;3.70;;;2.63;;
5493;SDS011;2769;49.864;8.656;2023-04-04T00:48:19;3.27;;;2.60;;
5493;SDS011;2769;49.864;8.656;2023-04-04T00:50:50;2.27;;;2.17;;
5493;SDS011;2769;49.864;8.656;2023-04-04T00:53:18;5.50;;;2.47;;
5493;SDS011;2769;49.864;8.656;2023-04-04T00:55:46;5.03;;;2.10;;
5493;SDS011;2769;49.864;8.656;2023-04-04T00:58:14;2.43;;;2.30;;
5493;SDS011;2769;49.864;8.656;2023-04-04T01:00:44;2.60;;;2.40;;
5493;SDS011;2769;49.864;8.656;2023-04-04T01:03:12;4.37;;;1.93;;
5493;SDS011;2769;49.864;8.656;2023-04-04T01:05:40;2.50;;;2.30;;
5493;SDS011;2769;49.864;8.656;2023-04-04T01:08:09;5.30;;;2.40;;
5493;SDS011;2769;49.864;8.656;2023-04-04T01:10:37;3.57;;;2.73;;
5493;SDS011;2769;49.864;8.656;2023-04-04T01:13:06;7.10;;;2.77;;
5493;SDS011;2769;49.864;8.656;2023-04-04T01:15:35;4.80;;;2.50;;
5493;SDS011;2769;49.864;8.656;2023-04-04T01:18:05;5.60;;;2.60;;
5493;SDS011;2769;49.864;8.656;2023-04-04T01:20:34;2.67;;;2.37;;
5493;SDS011;2769;49.864;8.656;2023-04-04T01:23:07;3.30;;;2.60;;
5493;SDS011;2769;49.864;8.656;2023-04-04T01:25:38;2.57;;;2.47;;
5493;SDS011;2769;49.864;8.656;2023-04-04T01:28:10;2.97;;;2.77;;
5493;SDS011;2769;49.864;8.656;2023-04-04T01:30:39;4.70;;;2.70;;
5493;SDS011;2769;49.864;8.656;2023-04-04T01:33:09;3.03;;;2.57;;
5493;SDS011;2769;49.864;8.656;2023-04-04T01:35:47;3.60;;;2.67;;
5493;SDS011;2769;49.864;8.656;2023-04-04T01:38:22;3.77;;;2.60;;
5493;SDS011;2769;49.864;8.656;2023-04-04T01:40:57;2.57;;;2.47;;
5493;SDS011;2769;49.864;8.656;2023-04-04T01:43:30;3.90;;;3.27;;
5493;SDS011;2769;49.864;8.656;2023-04-04T01:46:00;3.40;;;3.10;;
5493;SDS011;2769;49.864;8.656;2023-04-04T01:48:28;3.00;;;2.80;;
5493;SDS011;2769;49.864;8.656;2023-04-04T01:51:01;3.07;;;2.87;;
5493;SDS011;2769;49.864;8.656;2023-04-04T01:53:29;3.23;;;2.40;;
5493;SDS011;2769;49.864;8.656;2023-04-04T01:55:58;4.40;;;2.93;;
5493;SDS011;2769;49.864;8.656;2023-04-04T01:58:27;4.73;;;3.10;;
5493;SDS011;2769;49.864;8.656;2023-04-04T02:00:55;2.87;;;2.67;;
5493;SDS011;2769;49.864;8.656;2023-04-04T02:03:23;4.20;;;2.97;;
5493;SDS011;2769;49.864;8.656;2023-04-04T02:05:52;2.77;;;2.50;;
5493;SDS011;2769;49.864;8.656;2023-04-04T02:08:20;2.70;;;2.50;;
5493;SDS011;2769;49.864;8.656;2023-04-04T02:10:55;4.20;;;2.90;;
5493;SDS011;2769;49.864;8.656;2023-04-04T02:13:26;2.83;;;2.63;;
5493;SDS011;2769;49.864;8.656;2023-04-04T02:15:56;2.80;;;2.63;;
5493;SDS011;2769;49.864;8.656;2023-04-04T02:18:24;4.10;;;2.77;;
5493;SDS011;2769;49.864;8.656;2023-04-04T02:20:56;3.00;;;2.77;;
5493;SDS011;2769;49.864;8.656;2023-04-04T02:23:24;2.87;;;2.67;;
5493;SDS011;2769;49.864;8.656;2023-04-04T02:25:53;3.93;;;2.80;;
5493;SDS011;2769;49.864;8.656;2023-04-04T02:28:21;3.40;;;2.50;;
5493;SDS011;2769;49.864;8.656;2023-04-04T02:30:50;3.00;;;2.80;;
5493;SDS011;2769;49.864;8.656;2023-04-04T02:33:18;2.60;;;2.40;;
5493;SDS011;2769;49.864;8.656;2023-04-04T02:35:47;2.80;;;2.60;;
5493;SDS011;2769;49.864;8.656;2023-04-04T02:38:15;2.67;;;2.57;;
5493;SDS011;2769;49.864;8.656;2023-04-04T02:40:45;2.70;;;2.50;;
5493;SDS011;2769;49.864;8.656;2023-04-04T02:43:13;9.33;;;3.17;;
5493;SDS011;2769;49.864;8.656;2023-04-04T02:45:42;4.80;;;2.97;;
5493;SDS011;2769;49.864;8.656;2023-04-04T02:48:23;2.97;;;2.73;;
5493;SDS011;2769;49.864;8.656;2023-04-04T02:50:56;6.80;;;3.07;;
5493;SDS011;2769;49.864;8.656;2023-04-04T02:53:24;7.17;;;4.77;;
5493;SDS011;2769;49.864;8.656;2023-04-04T02:55:56;11.50;;;6.10;;
5493;SDS011;2769;49.864;8.656;2023-04-04T02:58:24;22.87;;;9.63;;
5493;SDS011;2769;49.864;8.656;2023-04-04T03:00:53;37.50;;;12.80;;
5493;SDS011;2769;49.864;8.656;2023-04-04T03:03:27;36.00;;;13.27;;
5493;SDS011;2769;49.864;8.656;2023-04-04T03:05:56;32.67;;;13.27;;
5493;SDS011;2769;49.864;8.656;2023-04-04T03:08:25;25.53;;;10.83;;
5493;SDS011;2769;49.864;8.656;2023-04-04T03:10:57;18.47;;;8.40;;
5493;SDS011;2769;49.864;8.656;2023-04-04T03:13:25;10.57;;;6.47;;
5493;SDS011;2769;49.864;8.656;2023-04-04T03:15:56;8.80;;;5.90;;
5493;SDS011;2769;49.864;8.656;2023-04-04T03:18:27;10.93;;;5.20;;
5493;SDS011;2769;49.864;8.656;2023-04-04T03:20:56;7.67;;;4.73;;
5493;SDS011;2769;49.864;8.656;2023-04-04T03:23:23;9.20;;;4.10;;
5493;SDS011;2769;49.864;8.656;2023-04-04T03:25:52;3.60;;;3.30;;
5493;SDS011;2769;49.864;8.656;2023-04-04T03:28:21;5.47;;;4.03;;
5493;SDS011;2769;49.864;8.656;2023-04-04T03:30:49;4.00;;;3.03;;
5493;SDS011;2769;49.864;8.656;2023-04-04T03:33:17;3.50;;;3.20;;
5493;SDS011;2769;49.864;8.656;2023-04-04T03:35:46;3.00;;;2.80;;
5493;SDS011;2769;49.864;8.656;2023-04-04T03:38:14;6.17;;;3.10;;
5493;SDS011;2769;49.864;8.656;2023-04-04T03:40:42;5.67;;;3.43;;
5493;SDS011;2769;49.864;8.656;2023-04-04T03:43:11;3.17;;;2.90;;
5493;SDS011;2769;49.864;8.656;2023-04-04T03:45:40;3.20;;;2.90;;
5493;SDS011;2769;49.864;8.656;2023-04-04T03:48:08;3.83;;;3.07;;
5493;SDS011;2769;49.864;8.656;2023-04-04T03:50:37;2.60;;;2.40;;
5493;SDS011;2769;49.864;8.656;2023-04-04T03:53:07;5.10;;;3.20;;
5493;SDS011;2769;49.864;8.656;2023-04-04T03:55:39;3.30;;;3.00;;
5493;SDS011;2769;49.864;8.656;2023-04-04T03:58:08;3.70;;;3.27;;
5493;SDS011;2769;49.864;8.656;2023-04-04T04:00:36;6.50;;;3.87;;
5493;SDS011;2769;49.864;8.656;2023-04-04T04:03:04;5.57;;;3.20;;
5493;SDS011;2769;49.864;8.656;2023-04-04T04:05:32;3.17;;;2.97;;
5493;SDS011;2769;49.864;8.656;2023-04-04T04:08:00;2.70;;;2.60;;
5493;SDS011;2769;49.864;8.656;2023-04-04T04:10:30;3.70;;;3.10;;
5493;SDS011;2769;49.864;8.656;2023-04-04T04:13:00;3.40;;;3.00;;
5493;SDS011;2769;49.864;8.656;2023-04-04T04:15:28;3.57;;;2.87;;
5493;SDS011;2769;49.864;8.656;2023-04-04T04:17:58;5.83;;;3.27;;
5493;SDS011;2769;49.864;8.656;2023-04-04T04:20:27;2.60;;;2.40;;
5493;SDS011;2769;49.864;8.656;2023-04-04T04:22:58;4.47;;;3.10;;
5493;SDS011;2769;49.864;8.656;2023-04-04T04:25:26;2.90;;;2.73;;
5493;SDS011;2769;49.864;8.656;2023-04-04T04:28:13;4.07;;;2.83;;
5493;SDS011;2769;49.864;8.656;2023-04-04T04:30:41;3.80;;;2.60;;
5493;SDS011;2769;49.864;8.656;2023-04-04T04:33:11;3.33;;;3.13;;
5493;SDS011;2769;49.864;8.656;2023-04-04T04:35:51;4.63;;;3.30;;
5493;SDS011;2769;49.864;8.656;2023-04-04T04:38:22;2.70;;;2.60;;
5493;SDS011;2769;49.864;8.656;2023-04-04T04:40:49;3.80;;;2.87;;
5493;SDS011;2769;49.864;8.656;2023-04-04T04:43:25;2.90;;;2.70;;
5493;SDS011;2769;49.864;8.656;2023-04-04T04:45:54;2.90;;;2.73;;
5493;SDS011;2769;49.864;8.656;2023-04-04T04:48:22;3.00;;;2.80;;
5493;SDS011;2769;49.864;8.656;2023-04-04T04:50:54;3.33;;;2.80;;
5493;SDS011;2769;49.864;8.656;2023-04-04T04:53:37;3.47;;;3.17;;
5493;SDS011;2769;49.864;8.656;2023-04-04T04:56:05;3.43;;;3.03;;
5493;SDS011;2769;49.864;8.656;2023-04-04T04:58:38;3.33;;;3.00;;
5493;SDS011;2769;49.864;8.656;2023-04-04T05:01:09;3.67;;;3.00;;
5493;SDS011;2769;49.864;8.656;2023-04-04T05:03:38;3.87;;;3.10;;
5493;SDS011;2769;49.864;8.656;2023-04-04T05:06:11;4.00;;;2.70;;
5493;SDS011;2769;49.864;8.656;2023-04-04T05:08:39;2.90;;;2.70;;
5493;SDS011;2769;49.864;8.656;2023-04-04T05:11:29;3.60;;;3.40;;
5493;SDS011;2769;49.864;8.656;2023-04-04T05:13:59;3.40;;;3.00;;
5493;SDS011;2769;49.864;8.656;2023-04-04T05:16:31;3.17;;;3.03;;
5493;SDS011;2769;49.864;8.656;2023-04-04T05:19:00;3.53;;;3.30;;
5493;SDS011;2769;49.864;8.656;2023-04-04T05:21:34;3.13;;;2.93;;
5493;SDS011;2769;49.864;8.656;2023-04-04T05:24:06;5.80;;;2.93;;
5493;SDS011;2769;49.864;8.656;2023-04-04T05:26:38;5.67;;;3.87;;
5493;SDS011;2769;49.864;8.656;2023-04-04T05:29:07;3.30;;;3.10;;
5493;SDS011;2769;49.864;8.656;2023-04-04T05:31:39;3.07;;;2.87;;
5493;SDS011;2769;49.864;8.656;2023-04-04T05:34:14;3.20;;;2.90;;
5493;SDS011;2769;49.864;8.656;2023-04-04T05:36:42;3.23;;;3.03;;
5493;SDS011;2769;49.864;8.656;2023-04-04T05:39:10;2.83;;;2.63;;
5493;SDS011;2769;49.864;8.656;2023-04-04T05:41:46;4.50;;;2.70;;
5493;SDS011;2769;49.864;8.656;2023-04-04T05:44:18;2.93;;;2.70;;
5493;SDS011;2769;49.864;8.656;2023-04-04T05:46:46;4.20;;;3.30;;
5493;SDS011;2769;49.864;8.656;2023-04-04T05:49:14;4.00;;;3.00;;
5493;SDS011;2769;49.864;8.656;2023-04-04T05:51:53;5.07;;;2.77;;
5493;SDS011;2769;49.864;8.656;2023-04-04T05:54:22;2.90;;;2.70;;
5493;SDS011;2769;49.864;8.656;2023-04-04T05:56:51;3.23;;;3.03;;
5493;SDS011;2769;49.864;8.656;2023-04-04T05:59:38;3.90;;;3.10;;
5493;SDS011;2769;49.864;8.656;2023-04-04T06:02:08;2.90;;;2.73;;
5493;SDS011;2769;49.864;8.656;2023-04-04T06:04:39;4.10;;;3.23;;
5493;SDS011;2769;49.864;8.656;2023-04-04T06:07:09;4.30;;;2.83;;
5493;SDS011;2769;49.864;8.656;2023-04-04T06:09:37;3.33;;;3.03;;
5493;SDS011;2769;49.864;8.656;2023-04-04T06:12:09;3.30;;;3.00;;
5493;SDS011;2769;49.864;8.656;2023-04-04T06:14:39;4.43;;;2.90;;
5493;SDS011;2769;49.864;8.656;2023-04-04T06:17:08;3.87;;;2.90;;
5493;SDS011;2769;49.864;8.656;2023-04-04T06:19:36;2.90;;;2.70;;
5493;SDS011;2769;49.864;8.656;2023-04-04T06:22:04;3.47;;;3.07;;
5493;SDS011;2769;49.864;8.656;2023-04-04T06:24:35;5.50;;;3.50;;
5493;SDS011;2769;49.864;8.656;2023-04-04T06:27:04;9.73;;;3.60;;
5493;SDS011;2769;49.864;8.656;2023-04-04T06:29:33;3.67;;;3.07;;
5493;SDS011;2769;49.864;8.656;2023-04-04T06:32:08;2.90;;;2.60;;
5493;SDS011;2769;49.864;8.656;2023-04-04T06:34:39;3.30;;;2.70;;
5493;SDS011;2769;49.864;8.656;2023-04-04T06:37:08;2.50;;;2.30;;
5493;SDS011;2769;49.864;8.656;2023-04-04T06:39:45;2.70;;;2.60;;
5493;SDS011;2769;49.864;8.656;2023-04-04T06:42:23;3.10;;;2.90;;
5493;SDS011;2769;49.864;8.656;2023-04-04T06:44:52;3.80;;;2.57;;
5493;SDS011;2769;49.864;8.656;2023-04-04T06:47:22;6.07;;;2.80;;
5493;SDS011;2769;49.864;8.656;2023-04-04T06:49:50;2.80;;;2.50;;
5493;SDS011;2769;49.864;8.656;2023-04-04T06:52:19;3.67;;;2.27;;
5493;SDS011;2769;49.864;8.656;2023-04-04T06:54:47;7.00;;;2.53;;
5493;SDS011;2769;49.864;8.656;2023-04-04T06:57:15;4.93;;;2.67;;
5493;SDS011;2769;49.864;8.656;2023-04-04T06:59:43;2.83;;;2.20;;
5493;SDS011;2769;49.864;8.656;2023-04-04T07:02:11;2.60;;;2.40;;
5493;SDS011;2769;49.864;8.656;2023-04-04T07:04:41;2.43;;;2.23;;
5493;SDS011;2769;49.864;8.656;2023-04-04T07:07:08;3.10;;;1.93;;
5493;SDS011;2769;49.864;8.656;2023-04-04T07:09:37;3.27;;;2.20;;
5493;SDS011;2769;49.864;8.656;2023-04-04T07:12:05;1.80;;;1.80;;
5493;SDS011;2769;49.864;8.656;2023-04-04T07:14:33;2.30;;;2.07;;
5493;SDS011;2769;49.864;8.656;2023-04-04T07:17:01;2.20;;;2.10;;
5493;SDS011;2769;49.864;8.656;2023-04-04T07:19:44;2.50;;;1.83;;
5493;SDS011;2769;49.864;8.656;2023-04-04T07:22:12;2.90;;;2.70;;
5493;SDS011;2769;49.864;8.656;2023-04-04T07:24:39;2.03;;;1.87;;
5493;SDS011;2769;49.864;8.656;2023-04-04T07:27:07;2.37;;;2.23;;
5493;SDS011;2769;49.864;8.656;2023-04-04T07:29:36;2.90;;;2.20;;
5493;SDS011;2769;49.864;8.656;2023-04-04T07:32:04;2.00;;;1.90;;
5493;SDS011;2769;49.864;8.656;2023-04-04T07:34:33;4.00;;;1.93;;
5493;SDS011;2769;49.864;8.656;2023-04-04T07:37:02;1.90;;;1.80;;
5493;SDS011;2769;49.864;8.656;2023-04-04T07:39:30;4.57;;;2.43;;
5493;SDS011;2769;49.864;8.656;2023-04-04T07:41:58;3.90;;;1.60;;
5493;SDS011;2769;49.864;8.656;2023-04-04T07:44:26;1.83;;;1.73;;
5493;SDS011;2769;49.864;8.656;2023-04-04T07:46:54;2.00;;;1.83;;
5493;SDS011;2769;49.864;8.656;2023-04-04T07:49:34;2.43;;;2.23;;
5493;SDS011;2769;49.864;8.656;2023-04-04T07:52:04;3.90;;;1.97;;
5493;SDS011;2769;49.864;8.656;2023-04-04T07:54:32;1.90;;;1.80;;
5493;SDS011;2769;49.864;8.656;2023-04-04T07:57:02;2.30;;;2.17;;
5493;SDS011;2769;49.864;8.656;2023-04-04T07:59:31;2.23;;;2.07;;
5493;SDS011;2769;49.864;8.656;2023-04-04T08:01:59;6.20;;;2.37;;
5493;SDS011;2769;49.864;8.656;2023-04-04T08:04:30;1.90;;;1.77;;
5493;SDS011;2769;49.864;8.656;2023-04-04T08:06:58;2.60;;;2.33;;
5493;SDS011;2769;49.864;8.656;2023-04-04T08:09:28;2.50;;;2.30;;
5493;SDS011;2769;49.864;8.656;2023-04-04T08:11:59;3.20;;;2.00;;
5493;SDS011;2769;49.864;8.656;2023-04-04T08:14:28;2.70;;;2.50;;
5493;SDS011;2769;49.864;8.656;2023-04-04T08:16:56;4.97;;;2.07;;
5493;SDS011;2769;49.864;8.656;2023-04-04T08:19:24;3.10;;;1.90;;
5493;SDS011;2769;49.864;8.656;2023-04-04T08:21:52;2.40;;;2.20;;
5493;SDS011;2769;49.864;8.656;2023-04-04T08:24:21;7.67;;;2.27;;
5493;SDS011;2769;49.864;8.656;2023-04-04T08:26:53;3.40;;;2.20;;
5493;SDS011;2769;49.864;8.656;2023-04-04T08:29:30;2.53;;;2.20;;
5493;SDS011;2769;49.864;8.656;2023-04-04T08:32:00;2.43;;;2.23;;
5493;SDS011;2769;49.864;8.656;2023-04-04T08:34:28;2.60;;;2.40;;
5493;SDS011;2769;49.864;8.656;2023-04-04T08:36:56;2.63;;;2.10;;
5493;SDS011;2769;49.864;8.656;2023-04-04T08:39:25;3.77;;;2.33;;
5493;SDS011;2769;49.864;8.656;2023-04-04T08:41:56;2.40;;;2.20;;
5493;SDS011;2769;49.864;8.656;2023-04-04T08:44:29;2.00;;;1.90;;
5493;SDS011;2769;49.864;8.656;2023-04-04T08:46:58;4.80;;;2.00;;
5493;SDS011;2769;49.864;8.656;2023-04-04T08:49:27;4.20;;;2.33;;
5493;SDS011;2769;49.864;8.656;2023-04-04T08:51:56;2.67;;;2.10;;
5493;SDS011;2769;49.864;8.656;2023-04-04T08:54:25;2.50;;;2.00;;
5493;SDS011;2769;49.864;8.656;2023-04-04T08:56:57;3.90;;;2.00;;
5493;SDS011;2769;49.864;8.656;2023-04-04T08:59:25;2.70;;;2.07;;
5493;SDS011;2769;49.864;8.656;2023-04-04T09:01:55;3.10;;;2.40;;
5493;SDS011;2769;49.864;8.656;2023-04-04T09:04:27;2.67;;;2.47;;
5493;SDS011;2769;49.864;8.656;2023-04-04T09:06:55;2.60;;;2.40;;
5493;SDS011;2769;49.864;8.656;2023-04-04T09:09:24;2.00;;;1.90;;
5493;SDS011;2769;49.864;8.656;2023-04-04T09:11:53;2.97;;;2.13;;
5493;SDS011;2769;49.864;8.656;2023-04-04T09:14:22;2.50;;;2.00;;
5493;SDS011;2769;49.864;8.656;2023-04-04T09:16:51;2.53;;;2.30;;
5493;SDS011;2769;49.864;8.656;2023-04-04T09:19:19;2.80;;;2.03;;
5493;SDS011;2769;49.864;8.656;2023-04-04T09:21:51;7.40;;;2.43;;
5493;SDS011;2769;49.864;8.656;2023-04-04T09:24:19;2.10;;;2.00;;
5493;SDS011;2769;49.864;8.656;2023-04-04T09:26:47;3.70;;;2.10;;
5493;SDS011;2769;49.864;8.656;2023-04-04T09:29:17;2.50;;;2.30;;
5493;SDS011;2769;49.864;8.656;2023-04-04T09:31:47;2.40;;;2.20;;
5493;SDS011;2769;49.864;8.656;2023-04-04T09:34:16;3.70;;;2.17;;
5493;SDS011;2769;49.864;8.656;2023-04-04T09:36:45;2.77;;;2.20;;
5493;SDS011;2769;49.864;8.656;2023-04-04T09:39:13;3.43;;;1.90;;
5493;SDS011;2769;49.864;8.656;2023-04-04T09:41:43;4.33;;;2.23;;
5493;SDS011;2769;49.864;8.656;2023-04-04T09:44:11;2.33;;;2.20;;
5493;SDS011;2769;49.864;8.656;2023-04-04T09:46:39;2.20;;;2.10;;
5493;SDS011;2769;49.864;8.656;2023-04-04T09:49:10;2.60;;;2.30;;
5493;SDS011;2769;49.864;8.656;2023-04-04T09:51:39;4.63;;;2.00;;
5493;SDS011;2769;49.864;8.656;2023-04-04T09:54:08;2.10;;;1.90;;
5493;SDS011;2769;49.864;8.656;2023-04-04T09:56:48;4.33;;;1.70;;
5493;SDS011;2769;49.864;8.656;2023-04-04T09:59:16;6.33;;;2.47;;
5493;SDS011;2769;49.864;8.656;2023-04-04T10:01:45;5.90;;;2.43;;
5493;SDS011;2769;49.864;8.656;2023-04-04T10:04:14;3.03;;;1.90;;
5493;SDS011;2769;49.864;8.656;2023-04-04T10:06:43;1.83;;;1.73;;
5493;SDS011;2769;49.864;8.656;2023-04-04T10:09:11;2.93;;;1.90;;
5493;SDS011;2769;49.864;8.656;2023-04-04T10:11:39;1.97;;;1.87;;
5493;SDS011;2769;49.864;8.656;2023-04-04T10:14:07;2.40;;;1.93;;
5493;SDS011;2769;49.864;8.656;2023-04-04T10:16:36;2.90;;;1.90;;
5493;SDS011;2769;49.864;8.656;2023-04-04T10:19:04;1.90;;;1.80;;
5493;SDS011;2769;49.864;8.656;2023-04-04T10:21:35;2.20;;;2.00;;
5493;SDS011;2769;49.864;8.656;2023-04-04T10:24:03;1.80;;;1.70;;
5493;SDS011;2769;49.864;8.656;2023-04-04T10:26:35;2.97;;;2.00;;
5493;SDS011;2769;49.864;8.656;2023-04-04T10:29:03;2.20;;;2.00;;
5493;SDS011;2769;49.864;8.656;2023-04-04T10:31:32;1.80;;;1.70;;
5493;SDS011;2769;49.864;8.656;2023-04-04T10:34:04;2.90;;;2.10;;
5493;SDS011;2769;49.864;8.656;2023-04-04T10:36:43;2.40;;;1.70;;
5493;SDS011;2769;49.864;8.656;2023-04-04T10:39:13;5.53;;;1.87;;
5493;SDS011;2769;49.864;8.656;2023-04-04T10:41:41;3.87;;;1.80;;
5493;SDS011;2769;49.864;8.656;2023-04-04T10:44:11;1.80;;;1.70;;
5493;SDS011;2769;49.864;8.656;2023-04-04T10:46:45;2.90;;;2.17;;
5493;SDS011;2769;49.864;8.656;2023-04-04T10:49:14;2.80;;;1.93;;
5493;SDS011;2769;49.864;8.656;2023-04-04T10:51:43;3.67;;;1.90;;
5493;SDS011;2769;49.864;8.656;2023-04-04T10:54:22;1.93;;;1.83;;
5493;SDS011;2769;49.864;8.656;2023-04-04T10:56:51;2.00;;;1.80;;
5493;SDS011;2769;49.864;8.656;2023-04-04T10:59:19;3.27;;;2.00;;
5493;SDS011;2769;49.864;8.656;2023-04-04T11:01:48;2.70;;;2.03;;
5493;SDS011;2769;49.864;8.656;2023-04-04T11:04:18;2.50;;;1.87;;
5493;SDS011;2769;49.864;8.656;2023-04-04T11:09:49;1.83;;;1.70;;
5493;SDS011;2769;49.864;8.656;2023-04-04T11:12:21;1.80;;;1.70;;
5493;SDS011;2769;49.864;8.656;2023-04-04T11:14:53;3.63;;;1.70;;
5493;SDS011;2769;49.864;8.656;2023-04-04T11:17:39;3.20;;;1.80;;
5493;SDS011;2769;49.864;8.656;2023-04-04T11:20:13;5.43;;;1.80;;
5493;SDS011;2769;49.864;8.656;2023-04-04T11:22:43;6.07;;;2.00;;
5493;SDS011;2769;49.864;8.656;2023-04-04T11:25:25;2.37;;;1.87;;
5493;SDS011;2769;49.864;8.656;2023-04-04T11:27:55;1.87;;;1.70;;
5493;SDS011;2769;49.864;8.656;2023-04-04T11:30:24;2.60;;;1.90;;
5493;SDS011;2769;49.864;8.656;2023-04-04T11:32:56;2.40;;;1.60;;
5493;SDS011;2769;49.864;8.656;2023-04-04T11:35:25;2.63;;;2.00;;
5493;SDS011;2769;49.864;8.656;2023-04-04T11:38:00;4.57;;;2.10;;
5493;SDS011;2769;49.864;8.656;2023-04-04T11:40:36;7.57;;;2.00;;
5493;SDS011;2769;49.864;8.656;2023-04-04T11:43:06;2.80;;;1.90;;
5493;SDS011;2769;49.864;8.656;2023-04-04T11:45:35;1.80;;;1.70;;
5493;SDS011;2769;49.864;8.656;2023-04-04T11:48:05;1.90;;;1.80;;
5493;SDS011;2769;49.864;8.656;2023-04-04T11:50:33;2.37;;;2.17;;
5493;SDS011;2769;49.864;8.656;2023-04-04T11:53:06;2.17;;;1.70;;
5493;SDS011;2769;49.864;8.656;2023-04-04T11:55:39;2.70;;;2.10;;
5493;SDS011;2769;49.864;8.656;2023-04-04T11:58:09;2.40;;;2.00;;
5493;SDS011;2769;49.864;8.656;2023-04-04T12:00:38;1.80;;;1.70;;
5493;SDS011;2769;49.864;8.656;2023-04-04T12:03:07;5.90;;;2.00;;
5493;SDS011;2769;49.864;8.656;2023-04-04T12:05:37;3.43;;;2.20;;
5493;SDS011;2769;49.864;8.656;2023-04-04T12:08:08;2.13;;;1.80;;
5493;SDS011;2769;49.864;8.656;2023-04-04T12:10:38;2.13;;;1.93;;
5493;SDS011;2769;49.864;8.656;2023-04-04T12:13:07;2.13;;;1.90;;
5493;SDS011;2769;49.864;8.656;2023-04-04T12:15:36;2.10;;;1.90;;
5493;SDS011;2769;49.864;8.656;2023-04-04T12:18:07;2.40;;;2.20;;
5493;SDS011;2769;49.864;8.656;2023-04-04T12:20:39;2.00;;;1.90;;
5493;SDS011;2769;49.864;8.656;2023-04-04T12:23:08;2.50;;;2.13;;
5493;SDS011;2769;49.864;8.656;2023-04-04T12:25:36;4.37;;;2.23;;
5493;SDS011;2769;49.864;8.656;2023-04-04T12:28:09;2.30;;;1.97;;
5493;SDS011;2769;49.864;8.656;2023-04-04T12:30:41;1.60;;;1.50;;
5493;SDS011;2769;49.864;8.656;2023-04-04T12:33:22;1.97;;;1.43;;
5493;SDS011;2769;49.864;8.656;2023-04-04T12:35:50;5.20;;;1.80;;
5493;SDS011;2769;49.864;8.656;2023-04-04T12:38:20;2.60;;;1.50;;
5493;SDS011;2769;49.864;8.656;2023-04-04T12:40:48;2.43;;;2.23;;
5493;SDS011;2769;49.864;8.656;2023-04-04T12:43:17;4.70;;;2.10;;
5493;SDS011;2769;49.864;8.656;2023-04-04T12:45:48;2.20;;;2.10;;
5493;SDS011;2769;49.864;8.656;2023-04-04T12:48:16;2.03;;;1.77;;
5493;SDS011;2769;49.864;8.656;2023-04-04T12:50:50;2.17;;;1.90;;
5493;SDS011;2769;49.864;8.656;2023-04-04T12:53:21;2.27;;;2.03;;
5493;SDS011;2769;49.864;8.656;2023-04-04T12:55:53;2.40;;;2.30;;
5493;SDS011;2769;49.864;8.656;2023-04-04T12:58:23;2.40;;;1.83;;
5493;SDS011;2769;49.864;8.656;2023-04-04T13:00:53;1.60;;;1.50;;
5493;SDS011;2769;49.864;8.656;2023-04-04T13:03:22;3.70;;;2.23;;
5493;SDS011;2769;49.864;8.656;2023-04-04T13:05:51;4.30;;;1.83;;
5493;SDS011;2769;49.864;8.656;2023-04-04T13:08:21;1.83;;;1.73;;
5493;SDS011;2769;49.864;8.656;2023-04-04T13:10:55;1.73;;;1.63;;
5493;SDS011;2769;49.864;8.656;2023-04-04T13:13:34;3.17;;;2.03;;
5493;SDS011;2769;49.864;8.656;2023-04-04T13:16:03;2.43;;;2.23;;
5493;SDS011;2769;49.864;8.656;2023-04-04T13:18:35;2.10;;;1.97;;
5493;SDS011;2769;49.864;8.656;2023-04-04T13:21:04;2.63;;;2.00;;
5493;SDS011;2769;49.864;8.656;2023-04-04T13:23:35;1.73;;;1.60;;
5493;SDS011;2769;49.864;8.656;2023-04-04T13:26:06;1.90;;;1.80;;
5493;SDS011;2769;49.864;8.656;2023-04-04T13:28:34;3.40;;;1.70;;
5493;SDS011;2769;49.864;8.656;2023-04-04T13:31:03;2.90;;;2.00;;
5493;SDS011;2769;49.864;8.656;2023-04-04T13:33:32;2.20;;;2.10;;
5493;SDS011;2769;49.864;8.656;2023-04-04T13:36:00;2.33;;;2.10;;
5493;SDS011;2769;49.864;8.656;2023-04-04T13:38:29;2.30;;;2.10;;
5493;SDS011;2769;49.864;8.656;2023-04-04T13:40:58;2.10;;;1.80;;
5493;SDS011;2769;49.864;8.656;2023-04-04T13:43:27;2.13;;;1.50;;
5493;SDS011;2769;49.864;8.656;2023-04-04T13:45:55;1.83;;;1.73;;
5493;SDS011;2769;49.864;8.656;2023-04-04T13:48:24;3.90;;;1.50;;
5493;SDS011;2769;49.864;8.656;2023-04-04T13:50:53;1.80;;;1.60;;
5493;SDS011;2769;49.864;8.656;2023-04-04T13:53:21;3.90;;;1.70;;
5493;SDS011;2769;49.864;8.656;2023-04-04T13:55:49;2.30;;;1.70;;
5493;SDS011;2769;49.864;8.656;2023-04-04T13:58:21;3.00;;;2.10;;
5493;SDS011;2769;49.864;8.656;2023-04-04T14:00:49;2.27;;;1.77;;
5493;SDS011;2769;49.864;8.656;2023-04-04T14:03:17;1.87;;;1.67;;
5493;SDS011;2769;49.864;8.656;2023-04-04T14:05:45;2.00;;;1.90;;
5493;SDS011;2769;49.864;8.656;2023-04-04T14:08:13;1.77;;;1.50;;
5493;SDS011;2769;49.864;8.656;2023-04-04T14:10:41;2.07;;;1.67;;
5493;SDS011;2769;49.864;8.656;2023-04-04T14:13:09;1.37;;;1.27;;
5493;SDS011;2769;49.864;8.656;2023-04-04T14:15:39;2.53;;;1.87;;
5493;SDS011;2769;49.864;8.656;2023-04-04T14:18:07;3.60;;;1.80;;
5493;SDS011;2769;49.864;8.656;2023-04-04T14:20:35;2.20;;;2.07;;
5493;SDS011;2769;49.864;8.656;2023-04-04T14:23:03;3.70;;;2.20;;
5493;SDS011;2769;49.864;8.656;2023-04-04T14:25:32;1.87;;;1.77;;
5493;SDS011;2769;49.864;8.656;2023-04-04T14:28:00;1.80;;;1.70;;
5493;SDS011;2769;49.864;8.656;2023-04-04T14:30:28;2.00;;;1.57;;
5493;SDS011;2769;49.864;8.656;2023-04-04T14:32:58;1.97;;;1.83;;
5493;SDS011;2769;49.864;8.656;2023-04-04T14:35:26;1.50;;;1.40;;
5493;SDS011;2769;49.864;8.656;2023-04-04T14:37:54;1.80;;;1.70;;
5493;SDS011;2769;49.864;8.656;2023-04-04T14:40:22;1.80;;;1.70;;
5493;SDS011;2769;49.864;8.656;2023-04-04T14:42:50;2.23;;;2.03;;
5493;SDS011;2769;49.864;8.656;2023-04-04T14:45:18;2.33;;;1.90;;
5493;SDS011;2769;49.864;8.656;2023-04-04T14:47:46;2.80;;;1.80;;
5493;SDS011;2769;49.864;8.656;2023-04-04T14:50:15;2.03;;;1.47;;
5493;SDS011;2769;49.864;8.656;2023-04-04T14:52:43;1.90;;;1.80;;
5493;SDS011;2769;49.864;8.656;2023-04-04T14:55:13;2.10;;;1.63;;
5493;SDS011;2769;49.864;8.656;2023-04-04T14:57:42;2.27;;;1.63;;
5493;SDS011;2769;49.864;8.656;2023-04-04T15:00:27;4.63;;;1.47;;
5493;SDS011;2769;49.864;8.656;2023-04-04T15:02:55;1.50;;;1.50;;
5493;SDS011;2769;49.864;8.656;2023-04-04T15:05:24;1.90;;;1.80;;
5493;SDS011;2769;49.864;8.656;2023-04-04T15:07:52;1.77;;;1.67;;
5493;SDS011;2769;49.864;8.656;2023-04-04T15:10:21;2.10;;;1.90;;
5493;SDS011;2769;49.864;8.656;2023-04-04T15:12:49;1.73;;;1.50;;
5493;SDS011;2769;49.864;8.656;2023-04-04T15:15:17;2.00;;;1.73;;
5493;SDS011;2769;49.864;8.656;2023-04-04T15:17:48;1.80;;;1.70;;
5493;SDS011;2769;49.864;8.656;2023-04-04T15:20:16;3.47;;;2.10;;
5493;SDS011;2769;49.864;8.656;2023-04-04T15:22:46;1.70;;;1.60;;
5493;SDS011;2769;49.864;8.656;2023-04-04T15:25:14;3.67;;;1.73;;
5493;SDS011;2769;49.864;8.656;2023-04-04T15:27:42;1.97;;;1.77;;
5493;SDS011;2769;49.864;8.656;2023-04-04T15:30:10;2.93;;;1.50;;
5493;SDS011;2769;49.864;8.656;2023-04-04T15:32:40;3.03;;;1.80;;
5493;SDS011;2769;49.864;8.656;2023-04-04T15:37:42;3.27;;;1.80;;